sensor_id;sensor_type;location;lat;lon;timestamp;P1;durP1;ratioP1;P2;durP2;ratioP2
73593;SDS011;62064;53.406;23.500;2022-09-27T00:00:43;11.02;;;7.70;;
73593;SDS011;62064;53.406;23.500;2022-09-27T00:03:29;8.55;;;6.88;;
73593;SDS011;62064;53.406;23.500;2022-09-27T00:08:32;9.38;;;6.55;;
73593;SDS011;62064;53.406;23.500;2022-09-27T00:11:00;8.93;;;6.80;;
73593;SDS011;62064;53.406;23.500;2022-09-27T00:13:28;9.35;;;7.07;;
73593;SDS011;62064;53.406;23.500;2022-09-27T00:15:55;9.73;;;7.05;;
73593;SDS011;62064;53.406;23.500;2022-09-27T00:18:25;8.23;;;6.28;;
73593;SDS011;62064;53.406;23.500;2022-09-27T00:20:52;8.20;;;6.70;;
73593;SDS011;62064;53.406;23.500;2022-09-27T00:23:18;10.27;;;6.47;;
73593;SDS011;62064;53.406;23.500;2022-09-27T00:25:54;9.27;;;6.45;;
73593;SDS011;62064;53.406;23.500;2022-09-27T00:28:22;8.52;;;5.95;;
73593;SDS011;62064;53.406;23.500;2022-09-27T00:30:48;8.73;;;6.35;;
73593;SDS011;62064;53.406;23.500;2022-09-27T00:33:15;8.75;;;6.95;;
73593;SDS011;62064;53.406;23.500;2022-09-27T00:35:41;10.13;;;6.68;;
73593;SDS011;62064;53.406;23.500;2022-09-27T00:38:09;7.65;;;6.28;;
73593;SDS011;62064;53.406;23.500;2022-09-27T00:40:35;8.40;;;6.40;;
73593;SDS011;62064;53.406;23.500;2022-09-27T00:43:02;7.40;;;5.97;;
73593;SDS011;62064;53.406;23.500;2022-09-27T00:45:28;8.77;;;6.65;;
73593;SDS011;62064;53.406;23.500;2022-09-27T00:47:58;9.35;;;6.93;;
73593;SDS011;62064;53.406;23.500;2022-09-27T00:50:36;8.63;;;6.25;;
73593;SDS011;62064;53.406;23.500;2022-09-27T00:55:33;9.85;;;6.68;;
73593;SDS011;62064;53.406;23.500;2022-09-27T00:58:04;9.00;;;6.05;;
73593;SDS011;62064;53.406;23.500;2022-09-27T01:00:30;7.88;;;6.10;;
73593;SDS011;62064;53.406;23.500;2022-09-27T01:02:57;9.13;;;6.53;;
73593;SDS011;62064;53.406;23.500;2022-09-27T01:05:27;7.95;;;6.43;;
73593;SDS011;62064;53.406;23.500;2022-09-27T01:07:54;8.93;;;6.72;;
73593;SDS011;62064;53.406;23.500;2022-09-27T01:10:27;8.73;;;6.20;;
73593;SDS011;62064;53.406;23.500;2022-09-27T01:16:08;10.02;;;5.90;;
73593;SDS011;62064;53.406;23.500;2022-09-27T01:18:49;8.27;;;6.05;;
73593;SDS011;62064;53.406;23.500;2022-09-27T01:32:21;7.85;;;6.32;;
73593;SDS011;62064;53.406;23.500;2022-09-27T01:34:54;8.68;;;6.13;;
73593;SDS011;62064;53.406;23.500;2022-09-27T01:37:34;9.52;;;6.05;;
73593;SDS011;62064;53.406;23.500;2022-09-27T01:43:43;7.68;;;5.68;;
73593;SDS011;62064;53.406;23.500;2022-09-27T01:46:37;7.32;;;5.93;;
73593;SDS011;62064;53.406;23.500;2022-09-27T01:49:41;8.48;;;5.90;;
73593;SDS011;62064;53.406;23.500;2022-09-27T01:52:14;7.80;;;5.43;;
73593;SDS011;62064;53.406;23.500;2022-09-27T01:54:47;7.32;;;5.32;;
73593;SDS011;62064;53.406;23.500;2022-09-27T01:57:55;8.77;;;6.13;;
73593;SDS011;62064;53.406;23.500;2022-09-27T02:00:28;8.32;;;5.95;;
73593;SDS011;62064;53.406;23.500;2022-09-27T02:02:56;7.60;;;5.85;;
73593;SDS011;62064;53.406;23.500;2022-09-27T02:05:40;7.60;;;5.85;;
73593;SDS011;62064;53.406;23.500;2022-09-27T02:11:32;7.97;;;6.13;;
73593;SDS011;62064;53.406;23.500;2022-09-27T02:14:17;8.43;;;6.13;;
73593;SDS011;62064;53.406;23.500;2022-09-27T02:16:58;7.25;;;5.80;;
73593;SDS011;62064;53.406;23.500;2022-09-27T02:22:25;7.90;;;6.00;;
73593;SDS011;62064;53.406;23.500;2022-09-27T02:25:29;8.02;;;6.20;;
73593;SDS011;62064;53.406;23.500;2022-09-27T02:30:41;10.20;;;6.28;;
73593;SDS011;62064;53.406;23.500;2022-09-27T02:33:21;7.25;;;6.13;;
73593;SDS011;62064;53.406;23.500;2022-09-27T02:35:55;7.40;;;5.70;;
73593;SDS011;62064;53.406;23.500;2022-09-27T02:40:48;7.07;;;5.18;;
73593;SDS011;62064;53.406;23.500;2022-09-27T02:43:15;8.43;;;5.63;;
73593;SDS011;62064;53.406;23.500;2022-09-27T02:49:00;8.25;;;5.72;;
73593;SDS011;62064;53.406;23.500;2022-09-27T02:54:44;7.65;;;5.55;;
73593;SDS011;62064;53.406;23.500;2022-09-27T03:00:23;7.20;;;5.25;;
73593;SDS011;62064;53.406;23.500;2022-09-27T03:03:19;7.45;;;5.35;;
73593;SDS011;62064;53.406;23.500;2022-09-27T03:05:59;8.73;;;5.97;;
73593;SDS011;62064;53.406;23.500;2022-09-27T03:08:29;8.10;;;5.78;;
73593;SDS011;62064;53.406;23.500;2022-09-27T03:10:55;7.28;;;5.97;;
73593;SDS011;62064;53.406;23.500;2022-09-27T03:13:22;7.85;;;5.45;;
73593;SDS011;62064;53.406;23.500;2022-09-27T03:15:50;7.13;;;5.78;;
73593;SDS011;62064;53.406;23.500;2022-09-27T03:18:48;7.70;;;5.80;;
73593;SDS011;62064;53.406;23.500;2022-09-27T03:21:33;7.70;;;5.30;;
73593;SDS011;62064;53.406;23.500;2022-09-27T03:23:59;8.02;;;5.75;;
73593;SDS011;62064;53.406;23.500;2022-09-27T03:26:28;7.88;;;6.25;;
73593;SDS011;62064;53.406;23.500;2022-09-27T03:28:56;6.90;;;5.00;;
73593;SDS011;62064;53.406;23.500;2022-09-27T03:31:22;6.95;;;5.35;;
73593;SDS011;62064;53.406;23.500;2022-09-27T03:34:07;7.75;;;6.20;;
73593;SDS011;62064;53.406;23.500;2022-09-27T03:36:33;7.85;;;5.20;;
73593;SDS011;62064;53.406;23.500;2022-09-27T03:39:00;6.70;;;5.28;;
73593;SDS011;62064;53.406;23.500;2022-09-27T03:41:26;7.82;;;5.80;;
73593;SDS011;62064;53.406;23.500;2022-09-27T03:43:53;7.10;;;5.40;;
73593;SDS011;62064;53.406;23.500;2022-09-27T03:46:22;6.90;;;5.60;;
73593;SDS011;62064;53.406;23.500;2022-09-27T03:48:49;7.28;;;5.45;;
73593;SDS011;62064;53.406;23.500;2022-09-27T03:51:15;7.47;;;5.30;;
73593;SDS011;62064;53.406;23.500;2022-09-27T03:53:43;6.70;;;5.20;;
73593;SDS011;62064;53.406;23.500;2022-09-27T03:56:10;7.35;;;5.32;;
73593;SDS011;62064;53.406;23.500;2022-09-27T03:58:36;6.25;;;5.32;;
73593;SDS011;62064;53.406;23.500;2022-09-27T04:01:03;7.88;;;5.63;;
73593;SDS011;62064;53.406;23.500;2022-09-27T04:03:32;7.22;;;5.00;;
73593;SDS011;62064;53.406;23.500;2022-09-27T04:06:30;8.05;;;6.00;;
73593;SDS011;62064;53.406;23.500;2022-09-27T04:08:57;7.53;;;5.68;;
73593;SDS011;62064;53.406;23.500;2022-09-27T04:11:32;7.32;;;5.20;;
73593;SDS011;62064;53.406;23.500;2022-09-27T04:13:59;7.05;;;5.10;;
73593;SDS011;62064;53.406;23.500;2022-09-27T04:16:25;7.85;;;6.00;;
73593;SDS011;62064;53.406;23.500;2022-09-27T04:19:12;6.60;;;5.20;;
73593;SDS011;62064;53.406;23.500;2022-09-27T04:21:48;8.30;;;5.75;;
73593;SDS011;62064;53.406;23.500;2022-09-27T04:24:16;6.53;;;5.13;;
73593;SDS011;62064;53.406;23.500;2022-09-27T04:26:53;6.97;;;5.55;;
73593;SDS011;62064;53.406;23.500;2022-09-27T04:29:23;6.43;;;5.65;;
73593;SDS011;62064;53.406;23.500;2022-09-27T04:31:52;6.97;;;5.38;;
73593;SDS011;62064;53.406;23.500;2022-09-27T04:34:43;6.97;;;4.88;;
73593;SDS011;62064;53.406;23.500;2022-09-27T04:37:32;6.63;;;5.35;;
73593;SDS011;62064;53.406;23.500;2022-09-27T04:40:01;6.95;;;5.05;;
73593;SDS011;62064;53.406;23.500;2022-09-27T04:42:32;7.47;;;5.28;;
73593;SDS011;62064;53.406;23.500;2022-09-27T04:44:58;6.65;;;5.35;;
73593;SDS011;62064;53.406;23.500;2022-09-27T04:47:27;6.35;;;5.10;;
73593;SDS011;62064;53.406;23.500;2022-09-27T04:49:53;7.55;;;5.45;;
73593;SDS011;62064;53.406;23.500;2022-09-27T04:52:19;7.22;;;5.63;;
73593;SDS011;62064;53.406;23.500;2022-09-27T04:54:46;7.60;;;5.30;;
73593;SDS011;62064;53.406;23.500;2022-09-27T04:57:12;6.63;;;5.03;;
73593;SDS011;62064;53.406;23.500;2022-09-27T04:59:45;7.03;;;5.45;;
73593;SDS011;62064;53.406;23.500;2022-09-27T05:02:12;8.38;;;5.60;;
73593;SDS011;62064;53.406;23.500;2022-09-27T05:04:57;7.20;;;5.35;;
73593;SDS011;62064;53.406;23.500;2022-09-27T05:07:28;6.65;;;5.35;;
73593;SDS011;62064;53.406;23.500;2022-09-27T05:09:59;7.03;;;5.43;;
73593;SDS011;62064;53.406;23.500;2022-09-27T05:12:26;5.80;;;5.03;;
73593;SDS011;62064;53.406;23.500;2022-09-27T05:14:56;7.38;;;5.35;;
73593;SDS011;62064;53.406;23.500;2022-09-27T05:17:40;8.07;;;5.85;;
73593;SDS011;62064;53.406;23.500;2022-09-27T05:22:54;6.60;;;4.97;;
73593;SDS011;62064;53.406;23.500;2022-09-27T05:25:21;6.13;;;4.88;;
73593;SDS011;62064;53.406;23.500;2022-09-27T05:27:48;6.65;;;5.28;;
73593;SDS011;62064;53.406;23.500;2022-09-27T05:30:16;6.30;;;4.78;;
73593;SDS011;62064;53.406;23.500;2022-09-27T05:32:53;6.78;;;5.28;;
73593;SDS011;62064;53.406;23.500;2022-09-27T05:35:26;7.07;;;5.15;;
73593;SDS011;62064;53.406;23.500;2022-09-27T05:37:53;7.70;;;5.00;;
73593;SDS011;62064;53.406;23.500;2022-09-27T05:40:47;7.13;;;5.40;;
73593;SDS011;62064;53.406;23.500;2022-09-27T05:43:16;7.13;;;5.55;;
73593;SDS011;62064;53.406;23.500;2022-09-27T05:45:43;6.93;;;5.45;;
73593;SDS011;62064;53.406;23.500;2022-09-27T05:48:11;6.72;;;4.72;;
73593;SDS011;62064;53.406;23.500;2022-09-27T05:50:48;7.95;;;5.97;;
73593;SDS011;62064;53.406;23.500;2022-09-27T05:53:18;6.40;;;5.20;;
73593;SDS011;62064;53.406;23.500;2022-09-27T05:55:51;7.95;;;6.32;;
73593;SDS011;62064;53.406;23.500;2022-09-27T05:58:39;7.93;;;5.90;;
73593;SDS011;62064;53.406;23.500;2022-09-27T06:01:12;6.97;;;5.50;;
73593;SDS011;62064;53.406;23.500;2022-09-27T06:04:02;7.28;;;5.18;;
73593;SDS011;62064;53.406;23.500;2022-09-27T06:07:06;6.18;;;5.00;;
73593;SDS011;62064;53.406;23.500;2022-09-27T06:09:41;6.68;;;5.22;;
73593;SDS011;62064;53.406;23.500;2022-09-27T06:12:11;6.47;;;5.28;;
73593;SDS011;62064;53.406;23.500;2022-09-27T06:14:40;7.22;;;5.35;;
73593;SDS011;62064;53.406;23.500;2022-09-27T06:17:17;6.05;;;5.20;;
73593;SDS011;62064;53.406;23.500;2022-09-27T06:19:45;7.25;;;5.55;;
73593;SDS011;62064;53.406;23.500;2022-09-27T06:22:22;7.03;;;5.45;;
73593;SDS011;62064;53.406;23.500;2022-09-27T06:24:56;6.88;;;5.50;;
73593;SDS011;62064;53.406;23.500;2022-09-27T06:27:25;7.63;;;5.40;;
73593;SDS011;62064;53.406;23.500;2022-09-27T06:30:14;6.13;;;4.78;;
73593;SDS011;62064;53.406;23.500;2022-09-27T06:32:46;7.00;;;5.43;;
73593;SDS011;62064;53.406;23.500;2022-09-27T06:35:18;7.60;;;5.45;;
73593;SDS011;62064;53.406;23.500;2022-09-27T06:40:12;6.93;;;4.90;;
73593;SDS011;62064;53.406;23.500;2022-09-27T06:43:12;6.20;;;4.88;;
73593;SDS011;62064;53.406;23.500;2022-09-27T06:46:08;7.07;;;5.25;;
73593;SDS011;62064;53.406;23.500;2022-09-27T06:48:52;7.35;;;5.35;;
73593;SDS011;62064;53.406;23.500;2022-09-27T06:51:19;7.25;;;5.28;;
73593;SDS011;62064;53.406;23.500;2022-09-27T06:53:49;6.97;;;6.03;;
73593;SDS011;62064;53.406;23.500;2022-09-27T06:56:27;7.25;;;5.28;;
73593;SDS011;62064;53.406;23.500;2022-09-27T06:58:53;6.65;;;4.95;;
73593;SDS011;62064;53.406;23.500;2022-09-27T07:01:43;6.15;;;4.93;;
73593;SDS011;62064;53.406;23.500;2022-09-27T07:04:27;6.93;;;5.40;;
73593;SDS011;62064;53.406;23.500;2022-09-27T07:07:12;6.25;;;4.93;;
73593;SDS011;62064;53.406;23.500;2022-09-27T07:09:43;7.07;;;5.35;;
73593;SDS011;62064;53.406;23.500;2022-09-27T07:12:11;6.80;;;5.50;;
73593;SDS011;62064;53.406;23.500;2022-09-27T07:17:06;7.22;;;5.07;;
73593;SDS011;62064;53.406;23.500;2022-09-27T07:19:39;6.53;;;4.93;;
73593;SDS011;62064;53.406;23.500;2022-09-27T07:22:07;7.25;;;5.65;;
73593;SDS011;62064;53.406;23.500;2022-09-27T07:24:35;6.78;;;5.40;;
73593;SDS011;62064;53.406;23.500;2022-09-27T07:27:04;6.60;;;5.13;;
73593;SDS011;62064;53.406;23.500;2022-09-27T07:29:30;7.22;;;5.40;;
73593;SDS011;62064;53.406;23.500;2022-09-27T07:32:03;6.53;;;4.97;;
73593;SDS011;62064;53.406;23.500;2022-09-27T07:34:32;7.50;;;5.40;;
73593;SDS011;62064;53.406;23.500;2022-09-27T07:36:59;7.10;;;5.43;;
73593;SDS011;62064;53.406;23.500;2022-09-27T07:39:27;6.90;;;5.07;;
73593;SDS011;62064;53.406;23.500;2022-09-27T07:41:53;6.53;;;5.13;;
73593;SDS011;62064;53.406;23.500;2022-09-27T07:44:20;6.38;;;5.00;;
73593;SDS011;62064;53.406;23.500;2022-09-27T07:47:10;7.10;;;5.35;;
73593;SDS011;62064;53.406;23.500;2022-09-27T07:49:55;6.80;;;5.30;;
73593;SDS011;62064;53.406;23.500;2022-09-27T07:52:38;7.03;;;5.60;;
73593;SDS011;62064;53.406;23.500;2022-09-27T07:55:25;6.63;;;5.20;;
73593;SDS011;62064;53.406;23.500;2022-09-27T07:58:03;5.70;;;4.78;;
73593;SDS011;62064;53.406;23.500;2022-09-27T08:00:33;6.55;;;5.63;;
73593;SDS011;62064;53.406;23.500;2022-09-27T08:03:05;6.78;;;4.90;;
73593;SDS011;62064;53.406;23.500;2022-09-27T08:05:33;7.63;;;5.32;;
73593;SDS011;62064;53.406;23.500;2022-09-27T08:08:03;6.78;;;5.10;;
73593;SDS011;62064;53.406;23.500;2022-09-27T08:10:31;7.20;;;5.53;;
73593;SDS011;62064;53.406;23.500;2022-09-27T08:12:58;7.07;;;5.15;;
73593;SDS011;62064;53.406;23.500;2022-09-27T08:15:29;6.35;;;4.97;;
73593;SDS011;62064;53.406;23.500;2022-09-27T08:17:56;5.75;;;4.65;;
73593;SDS011;62064;53.406;23.500;2022-09-27T08:20:46;6.45;;;5.15;;
73593;SDS011;62064;53.406;23.500;2022-09-27T08:23:25;6.30;;;5.07;;
73593;SDS011;62064;53.406;23.500;2022-09-27T08:26:09;8.32;;;5.55;;
73593;SDS011;62064;53.406;23.500;2022-09-27T08:28:50;6.72;;;5.18;;
73593;SDS011;62064;53.406;23.500;2022-09-27T08:31:20;6.45;;;4.68;;
73593;SDS011;62064;53.406;23.500;2022-09-27T08:33:49;6.85;;;5.28;;
73593;SDS011;62064;53.406;23.500;2022-09-27T08:36:16;5.85;;;4.82;;
73593;SDS011;62064;53.406;23.500;2022-09-27T08:38:43;6.68;;;5.00;;
73593;SDS011;62064;53.406;23.500;2022-09-27T08:41:25;7.03;;;5.40;;
73593;SDS011;62064;53.406;23.500;2022-09-27T08:44:08;7.10;;;5.15;;
73593;SDS011;62064;53.406;23.500;2022-09-27T08:50:13;6.00;;;4.68;;
73593;SDS011;62064;53.406;23.500;2022-09-27T08:52:45;7.00;;;4.93;;
73593;SDS011;62064;53.406;23.500;2022-09-27T08:55:36;5.97;;;4.68;;
73593;SDS011;62064;53.406;23.500;2022-09-27T09:01:13;5.97;;;4.78;;
73593;SDS011;62064;53.406;23.500;2022-09-27T09:03:52;7.50;;;5.00;;
73593;SDS011;62064;53.406;23.500;2022-09-27T09:15:44;7.00;;;5.15;;
73593;SDS011;62064;53.406;23.500;2022-09-27T09:29:50;6.38;;;5.15;;
73593;SDS011;62064;53.406;23.500;2022-09-27T09:35:19;6.70;;;5.18;;
73593;SDS011;62064;53.406;23.500;2022-09-27T09:37:49;6.97;;;5.32;;
73593;SDS011;62064;53.406;23.500;2022-09-27T09:45:40;6.80;;;5.25;;
73593;SDS011;62064;53.406;23.500;2022-09-27T09:51:26;6.18;;;4.60;;
73593;SDS011;62064;53.406;23.500;2022-09-27T09:56:39;7.70;;;5.10;;
73593;SDS011;62064;53.406;23.500;2022-09-27T09:59:14;6.68;;;4.97;;
73593;SDS011;62064;53.406;23.500;2022-09-27T10:01:48;6.93;;;4.72;;
73593;SDS011;62064;53.406;23.500;2022-09-27T10:04:25;6.28;;;4.88;;
73593;SDS011;62064;53.406;23.500;2022-09-27T10:06:58;6.03;;;5.05;;
73593;SDS011;62064;53.406;23.500;2022-09-27T10:09:30;6.15;;;4.85;;
73593;SDS011;62064;53.406;23.500;2022-09-27T10:12:35;6.40;;;4.68;;
73593;SDS011;62064;53.406;23.500;2022-09-27T10:15:04;6.85;;;5.20;;
73593;SDS011;62064;53.406;23.500;2022-09-27T10:17:35;6.15;;;4.70;;
73593;SDS011;62064;53.406;23.500;2022-09-27T10:20:06;6.72;;;4.70;;
73593;SDS011;62064;53.406;23.500;2022-09-27T10:22:43;6.32;;;4.97;;
73593;SDS011;62064;53.406;23.500;2022-09-27T10:25:56;6.10;;;4.65;;
73593;SDS011;62064;53.406;23.500;2022-09-27T10:28:45;7.07;;;4.80;;
73593;SDS011;62064;53.406;23.500;2022-09-27T10:31:19;6.72;;;5.50;;
73593;SDS011;62064;53.406;23.500;2022-09-27T10:34:03;6.60;;;4.82;;
73593;SDS011;62064;53.406;23.500;2022-09-27T10:36:38;6.32;;;5.03;;
73593;SDS011;62064;53.406;23.500;2022-09-27T10:39:05;6.45;;;4.90;;
73593;SDS011;62064;53.406;23.500;2022-09-27T10:41:40;6.65;;;4.85;;
73593;SDS011;62064;53.406;23.500;2022-09-27T10:46:49;6.68;;;5.00;;
73593;SDS011;62064;53.406;23.500;2022-09-27T10:49:37;5.95;;;4.90;;
73593;SDS011;62064;53.406;23.500;2022-09-27T10:52:14;6.15;;;4.47;;
73593;SDS011;62064;53.406;23.500;2022-09-27T10:54:59;5.50;;;4.32;;
73593;SDS011;62064;53.406;23.500;2022-09-27T10:57:30;6.43;;;4.97;;
73593;SDS011;62064;53.406;23.500;2022-09-27T10:59:58;6.38;;;4.60;;
73593;SDS011;62064;53.406;23.500;2022-09-27T11:02:34;6.32;;;4.72;;
73593;SDS011;62064;53.406;23.500;2022-09-27T11:05:09;6.90;;;5.18;;
73593;SDS011;62064;53.406;23.500;2022-09-27T11:07:57;6.93;;;5.13;;
73593;SDS011;62064;53.406;23.500;2022-09-27T11:10:43;6.00;;;4.25;;
73593;SDS011;62064;53.406;23.500;2022-09-27T11:13:24;6.25;;;4.95;;
73593;SDS011;62064;53.406;23.500;2022-09-27T11:25:05;5.47;;;4.60;;
73593;SDS011;62064;53.406;23.500;2022-09-27T11:27:44;5.47;;;4.38;;
73593;SDS011;62064;53.406;23.500;2022-09-27T11:31:04;6.50;;;4.63;;
73593;SDS011;62064;53.406;23.500;2022-09-27T11:33:52;6.10;;;4.47;;
73593;SDS011;62064;53.406;23.500;2022-09-27T11:39:08;5.97;;;4.68;;
73593;SDS011;62064;53.406;23.500;2022-09-27T11:41:51;5.43;;;4.38;;
73593;SDS011;62064;53.406;23.500;2022-09-27T11:50:20;6.57;;;5.18;;
73593;SDS011;62064;53.406;23.500;2022-09-27T11:58:33;5.90;;;4.50;;
73593;SDS011;62064;53.406;23.500;2022-09-27T12:07:07;6.18;;;4.55;;
73593;SDS011;62064;53.406;23.500;2022-09-27T12:09:44;5.90;;;4.22;;
73593;SDS011;62064;53.406;23.500;2022-09-27T12:12:19;6.72;;;4.60;;
73593;SDS011;62064;53.406;23.500;2022-09-27T12:15:33;5.70;;;4.28;;
73593;SDS011;62064;53.406;23.500;2022-09-27T12:17:43;6.03;;;4.60;;
73593;SDS011;62064;53.406;23.500;2022-09-27T12:20:19;6.65;;;4.97;;
73593;SDS011;62064;53.406;23.500;2022-09-27T12:22:54;5.43;;;4.53;;
73593;SDS011;62064;53.406;23.500;2022-09-27T12:25:58;6.60;;;4.50;;
73593;SDS011;62064;53.406;23.500;2022-09-27T12:28:37;5.07;;;4.03;;
73593;SDS011;62064;53.406;23.500;2022-09-27T12:40:05;6.18;;;4.53;;
73593;SDS011;62064;53.406;23.500;2022-09-27T12:42:43;5.90;;;4.65;;
73593;SDS011;62064;53.406;23.500;2022-09-27T12:45:29;5.35;;;4.15;;
73593;SDS011;62064;53.406;23.500;2022-09-27T12:50:53;6.07;;;4.53;;
73593;SDS011;62064;53.406;23.500;2022-09-27T12:53:35;6.40;;;4.65;;
73593;SDS011;62064;53.406;23.500;2022-09-27T12:56:17;5.97;;;4.18;;
73593;SDS011;62064;53.406;23.500;2022-09-27T13:10:09;6.13;;;4.35;;
73593;SDS011;62064;53.406;23.500;2022-09-27T13:12:41;6.20;;;4.43;;
73593;SDS011;62064;53.406;23.500;2022-09-27T13:15:21;6.53;;;4.55;;
73593;SDS011;62064;53.406;23.500;2022-09-27T13:18:01;6.82;;;4.75;;
73593;SDS011;62064;53.406;23.500;2022-09-27T13:20:42;5.68;;;4.65;;
73593;SDS011;62064;53.406;23.500;2022-09-27T13:37:33;5.75;;;4.65;;
73593;SDS011;62064;53.406;23.500;2022-09-27T13:42:54;5.80;;;4.60;;
73593;SDS011;62064;53.406;23.500;2022-09-27T13:45:40;5.95;;;4.50;;
73593;SDS011;62064;53.406;23.500;2022-09-27T13:51:15;6.03;;;4.03;;
73593;SDS011;62064;53.406;23.500;2022-09-27T13:54:00;7.13;;;4.90;;
73593;SDS011;62064;53.406;23.500;2022-09-27T14:02:26;6.32;;;4.60;;
73593;SDS011;62064;53.406;23.500;2022-09-27T14:04:56;6.55;;;4.50;;
73593;SDS011;62064;53.406;23.500;2022-09-27T14:07:39;7.63;;;4.50;;
73593;SDS011;62064;53.406;23.500;2022-09-27T14:10:15;5.80;;;4.60;;
73593;SDS011;62064;53.406;23.500;2022-09-27T14:12:46;6.78;;;4.50;;
73593;SDS011;62064;53.406;23.500;2022-09-27T14:15:26;6.50;;;4.68;;
73593;SDS011;62064;53.406;23.500;2022-09-27T14:17:57;6.50;;;4.63;;
73593;SDS011;62064;53.406;23.500;2022-09-27T14:20:35;5.75;;;4.05;;
73593;SDS011;62064;53.406;23.500;2022-09-27T14:23:20;6.10;;;4.28;;
73593;SDS011;62064;53.406;23.500;2022-09-27T14:25:50;6.20;;;4.47;;
73593;SDS011;62064;53.406;23.500;2022-09-27T14:28:20;6.07;;;4.35;;
73593;SDS011;62064;53.406;23.500;2022-09-27T14:31:22;6.15;;;4.70;;
73593;SDS011;62064;53.406;23.500;2022-09-27T14:34:07;6.45;;;5.03;;
73593;SDS011;62064;53.406;23.500;2022-09-27T14:36:39;6.28;;;4.30;;
73593;SDS011;62064;53.406;23.500;2022-09-27T14:39:31;6.90;;;4.75;;
73593;SDS011;62064;53.406;23.500;2022-09-27T14:42:15;6.05;;;4.70;;
73593;SDS011;62064;53.406;23.500;2022-09-27T14:44:46;5.97;;;4.47;;
73593;SDS011;62064;53.406;23.500;2022-09-27T14:49:45;7.00;;;5.00;;
73593;SDS011;62064;53.406;23.500;2022-09-27T14:52:15;5.80;;;4.40;;
73593;SDS011;62064;53.406;23.500;2022-09-27T14:54:42;6.30;;;4.68;;
73593;SDS011;62064;53.406;23.500;2022-09-27T14:57:10;6.43;;;4.65;;
73593;SDS011;62064;53.406;23.500;2022-09-27T14:59:42;6.22;;;4.47;;
73593;SDS011;62064;53.406;23.500;2022-09-27T15:02:14;5.75;;;4.18;;
73593;SDS011;62064;53.406;23.500;2022-09-27T15:04:47;6.50;;;4.90;;
73593;SDS011;62064;53.406;23.500;2022-09-27T15:07:15;6.10;;;4.80;;
73593;SDS011;62064;53.406;23.500;2022-09-27T15:09:43;6.65;;;4.53;;
73593;SDS011;62064;53.406;23.500;2022-09-27T15:12:15;5.70;;;4.35;;
73593;SDS011;62064;53.406;23.500;2022-09-27T15:17:17;6.15;;;4.72;;
73593;SDS011;62064;53.406;23.500;2022-09-27T15:19:55;7.47;;;5.50;;
73593;SDS011;62064;53.406;23.500;2022-09-27T15:22:33;5.97;;;4.72;;
73593;SDS011;62064;53.406;23.500;2022-09-27T15:25:06;6.93;;;4.63;;
73593;SDS011;62064;53.406;23.500;2022-09-27T15:27:48;6.93;;;4.90;;
73593;SDS011;62064;53.406;23.500;2022-09-27T15:30:24;6.10;;;4.22;;
73593;SDS011;62064;53.406;23.500;2022-09-27T15:32:58;6.00;;;4.05;;
73593;SDS011;62064;53.406;23.500;2022-09-27T15:35:25;6.05;;;4.13;;
73593;SDS011;62064;53.406;23.500;2022-09-27T15:43:37;6.03;;;4.55;;
73593;SDS011;62064;53.406;23.500;2022-09-27T15:52:07;5.75;;;4.75;;
73593;SDS011;62064;53.406;23.500;2022-09-27T15:55:07;5.40;;;4.07;;
73593;SDS011;62064;53.406;23.500;2022-09-27T15:57:40;5.32;;;4.30;;
73593;SDS011;62064;53.406;23.500;2022-09-27T16:00:09;6.40;;;4.90;;
73593;SDS011;62064;53.406;23.500;2022-09-27T16:02:39;6.75;;;4.80;;
73593;SDS011;62064;53.406;23.500;2022-09-27T16:05:05;7.25;;;4.80;;
73593;SDS011;62064;53.406;23.500;2022-09-27T16:07:31;6.97;;;4.93;;
73593;SDS011;62064;53.406;23.500;2022-09-27T16:09:57;5.90;;;4.35;;
73593;SDS011;62064;53.406;23.500;2022-09-27T16:12:23;5.57;;;4.38;;
73593;SDS011;62064;53.406;23.500;2022-09-27T16:14:52;6.65;;;4.60;;
73593;SDS011;62064;53.406;23.500;2022-09-27T16:17:19;6.43;;;4.90;;
73593;SDS011;62064;53.406;23.500;2022-09-27T16:19:46;5.93;;;4.57;;
73593;SDS011;62064;53.406;23.500;2022-09-27T16:22:12;6.07;;;4.30;;
73593;SDS011;62064;53.406;23.500;2022-09-27T16:24:38;7.50;;;5.03;;
73593;SDS011;62064;53.406;23.500;2022-09-27T16:27:04;6.32;;;4.60;;
73593;SDS011;62064;53.406;23.500;2022-09-27T16:29:30;6.28;;;4.40;;
73593;SDS011;62064;53.406;23.500;2022-09-27T16:31:56;6.00;;;4.78;;
73593;SDS011;62064;53.406;23.500;2022-09-27T16:34:22;5.95;;;4.22;;
73593;SDS011;62064;53.406;23.500;2022-09-27T16:36:49;6.65;;;4.90;;
73593;SDS011;62064;53.406;23.500;2022-09-27T16:39:15;6.30;;;4.68;;
73593;SDS011;62064;53.406;23.500;2022-09-27T16:41:41;6.65;;;4.72;;
73593;SDS011;62064;53.406;23.500;2022-09-27T16:44:10;6.63;;;4.90;;
73593;SDS011;62064;53.406;23.500;2022-09-27T16:46:39;6.82;;;4.82;;
73593;SDS011;62064;53.406;23.500;2022-09-27T16:49:07;6.75;;;5.07;;
73593;SDS011;62064;53.406;23.500;2022-09-27T16:51:57;6.72;;;4.90;;
73593;SDS011;62064;53.406;23.500;2022-09-27T16:54:27;6.00;;;4.57;;
73593;SDS011;62064;53.406;23.500;2022-09-27T16:56:55;6.03;;;4.35;;
73593;SDS011;62064;53.406;23.500;2022-09-27T16:59:22;6.25;;;4.85;;
73593;SDS011;62064;53.406;23.500;2022-09-27T17:01:49;6.00;;;4.35;;
73593;SDS011;62064;53.406;23.500;2022-09-27T17:04:16;6.38;;;4.55;;
73593;SDS011;62064;53.406;23.500;2022-09-27T17:06:47;5.90;;;4.53;;
73593;SDS011;62064;53.406;23.500;2022-09-27T17:09:14;6.97;;;5.10;;
73593;SDS011;62064;53.406;23.500;2022-09-27T17:11:40;6.28;;;4.97;;
73593;SDS011;62064;53.406;23.500;2022-09-27T17:14:08;6.18;;;4.32;;
73593;SDS011;62064;53.406;23.500;2022-09-27T17:16:42;5.70;;;4.03;;
73593;SDS011;62064;53.406;23.500;2022-09-27T17:19:08;7.10;;;4.97;;
73593;SDS011;62064;53.406;23.500;2022-09-27T17:21:35;5.93;;;4.55;;
73593;SDS011;62064;53.406;23.500;2022-09-27T17:24:01;6.72;;;4.88;;
73593;SDS011;62064;53.406;23.500;2022-09-27T17:26:28;6.45;;;4.40;;
73593;SDS011;62064;53.406;23.500;2022-09-27T17:28:58;6.45;;;4.70;;
73593;SDS011;62064;53.406;23.500;2022-09-27T17:31:29;7.03;;;4.90;;
73593;SDS011;62064;53.406;23.500;2022-09-27T17:33:59;6.38;;;4.45;;
73593;SDS011;62064;53.406;23.500;2022-09-27T17:36:27;6.40;;;4.72;;
73593;SDS011;62064;53.406;23.500;2022-09-27T17:38:54;6.80;;;4.53;;
73593;SDS011;62064;53.406;23.500;2022-09-27T17:41:23;6.18;;;4.30;;
73593;SDS011;62064;53.406;23.500;2022-09-27T17:43:53;6.30;;;4.68;;
73593;SDS011;62064;53.406;23.500;2022-09-27T17:48:52;6.65;;;4.65;;
73593;SDS011;62064;53.406;23.500;2022-09-27T17:51:38;6.88;;;5.10;;
73593;SDS011;62064;53.406;23.500;2022-09-27T17:54:07;6.55;;;4.50;;
73593;SDS011;62064;53.406;23.500;2022-09-27T17:56:35;6.45;;;4.80;;
73593;SDS011;62064;53.406;23.500;2022-09-27T17:59:02;6.50;;;4.85;;
73593;SDS011;62064;53.406;23.500;2022-09-27T18:01:30;7.05;;;4.78;;
73593;SDS011;62064;53.406;23.500;2022-09-27T18:03:57;6.43;;;4.70;;
73593;SDS011;62064;53.406;23.500;2022-09-27T18:06:27;6.63;;;4.80;;
73593;SDS011;62064;53.406;23.500;2022-09-27T18:11:21;6.45;;;4.75;;
73593;SDS011;62064;53.406;23.500;2022-09-27T18:13:55;7.10;;;4.47;;
73593;SDS011;62064;53.406;23.500;2022-09-27T18:16:27;5.88;;;4.05;;
73593;SDS011;62064;53.406;23.500;2022-09-27T18:19:00;5.82;;;4.53;;
73593;SDS011;62064;53.406;23.500;2022-09-27T18:21:34;6.15;;;4.85;;
73593;SDS011;62064;53.406;23.500;2022-09-27T18:24:01;6.78;;;5.03;;
73593;SDS011;62064;53.406;23.500;2022-09-27T18:26:30;7.75;;;5.10;;
73593;SDS011;62064;53.406;23.500;2022-09-27T18:29:08;6.43;;;4.43;;